sensor_id;sensor_type;location;lat;lon;timestamp;temperature;humidity
45096;DHT22;30858;51.108;8.068;2022-11-14T00:00:39;0.10;99.90
45096;DHT22;30858;51.108;8.068;2022-11-14T00:03:06;0.00;99.90
45096;DHT22;30858;51.108;8.068;2022-11-14T00:05:32;0.00;99.90
45096;DHT22;30858;51.108;8.068;2022-11-14T00:07:58;0.00;99.90
45096;DHT22;30858;51.108;8.068;2022-11-14T00:10:24;0.00;99.90
45096;DHT22;30858;51.108;8.068;2022-11-14T00:12:49;-0.10;99.90
45096;DHT22;30858;51.108;8.068;2022-11-14T00:15:15;-0.10;99.90
45096;DHT22;30858;51.108;8.068;2022-11-14T00:17:41;0.00;99.90
45096;DHT22;30858;51.108;8.068;2022-11-14T00:20:07;0.00;99.90
45096;DHT22;30858;51.108;8.068;2022-11-14T00:22:33;0.00;99.90
45096;DHT22;30858;51.108;8.068;2022-11-14T00:24:59;0.00;99.90
45096;DHT22;30858;51.108;8.068;2022-11-14T00:27:24;0.10;99.90
45096;DHT22;30858;51.108;8.068;2022-11-14T00:29:51;0.10;99.90
45096;DHT22;30858;51.108;8.068;2022-11-14T00:32:17;0.00;99.90
45096;DHT22;30858;51.108;8.068;2022-11-14T00:34:42;0.00;99.90
45096;DHT22;30858;51.108;8.068;2022-11-14T00:37:08;-0.10;99.90
45096;DHT22;30858;51.108;8.068;2022-11-14T00:39:33;0.00;99.90
45096;DHT22;30858;51.108;8.068;2022-11-14T00:41:59;-0.10;99.90
45096;DHT22;30858;51.108;8.068;2022-11-14T00:44:25;-0.20;99.90
45096;DHT22;30858;51.108;8.068;2022-11-14T00:46:50;-0.20;99.90
45096;DHT22;30858;51.108;8.068;2022-11-14T00:49:16;-0.10;99.90
45096;DHT22;30858;51.108;8.068;2022-11-14T00:51:41;-0.20;99.90
45096;DHT22;30858;51.108;8.068;2022-11-14T00:54:07;-0.10;99.90
45096;DHT22;30858;51.108;8.068;2022-11-14T00:56:32;-0.20;99.90
45096;DHT22;30858;51.108;8.068;2022-11-14T00:58:58;-0.20;99.90
45096;DHT22;30858;51.108;8.068;2022-11-14T01:01:23;-0.10;99.90
45096;DHT22;30858;51.108;8.068;2022-11-14T01:03:50;-0.20;99.90
45096;DHT22;30858;51.108;8.068;2022-11-14T01:06:17;-0.20;99.90
45096;DHT22;30858;51.108;8.068;2022-11-14T01:08:43;-0.10;99.90
45096;DHT22;30858;51.108;8.068;2022-11-14T01:11:15;-0.10;99.90
45096;DHT22;30858;51.108;8.068;2022-11-14T01:13:42;-0.20;99.90
45096;DHT22;30858;51.108;8.068;2022-11-14T01:16:08;-0.20;99.90
45096;DHT22;30858;51.108;8.068;2022-11-14T01:18:34;-0.20;99.90
45096;DHT22;30858;51.108;8.068;2022-11-14T01:21:07;-0.20;99.90
45096;DHT22;30858;51.108;8.068;2022-11-14T01:23:33;-0.20;99.90
45096;DHT22;30858;51.108;8.068;2022-11-14T01:26:02;-0.20;99.90
45096;DHT22;30858;51.108;8.068;2022-11-14T01:28:28;-0.20;99.90
45096;DHT22;30858;51.108;8.068;2022-11-14T01:30:53;-0.10;99.90
45096;DHT22;30858;51.108;8.068;2022-11-14T01:33:19;0.00;99.90
45096;DHT22;30858;51.108;8.068;2022-11-14T01:35:44;0.10;99.90
45096;DHT22;30858;51.108;8.068;2022-11-14T01:38:12;0.20;99.90
45096;DHT22;30858;51.108;8.068;2022-11-14T01:40:43;0.30;99.90
45096;DHT22;30858;51.108;8.068;2022-11-14T01:45:51;0.90;99.90
45096;DHT22;30858;51.108;8.068;2022-11-14T01:51:08;1.60;99.90
45096;DHT22;30858;51.108;8.068;2022-11-14T01:53:36;1.90;99.90
45096;DHT22;30858;51.108;8.068;2022-11-14T01:56:04;1.90;99.90
45096;DHT22;30858;51.108;8.068;2022-11-14T01:58:33;1.70;99.90
45096;DHT22;30858;51.108;8.068;2022-11-14T02:01:00;1.70;99.90
45096;DHT22;30858;51.108;8.068;2022-11-14T02:03:26;1.80;99.90
45096;DHT22;30858;51.108;8.068;2022-11-14T02:05:52;2.30;99.90
45096;DHT22;30858;51.108;8.068;2022-11-14T02:08:19;2.50;99.90
45096;DHT22;30858;51.108;8.068;2022-11-14T02:10:45;2.30;99.90
45096;DHT22;30858;51.108;8.068;2022-11-14T02:13:11;2.30;99.90
45096;DHT22;30858;51.108;8.068;2022-11-14T02:15:37;2.30;99.90
45096;DHT22;30858;51.108;8.068;2022-11-14T02:18:03;2.50;99.90
45096;DHT22;30858;51.108;8.068;2022-11-14T02:20:33;2.90;99.90
45096;DHT22;30858;51.108;8.068;2022-11-14T02:22:59;3.20;99.90
45096;DHT22;30858;51.108;8.068;2022-11-14T02:25:24;3.40;99.90
45096;DHT22;30858;51.108;8.068;2022-11-14T02:27:50;3.20;99.90
45096;DHT22;30858;51.108;8.068;2022-11-14T02:30:20;2.90;99.90
45096;DHT22;30858;51.108;8.068;2022-11-14T02:32:46;2.70;99.90
45096;DHT22;30858;51.108;8.068;2022-11-14T02:35:12;2.60;99.90
45096;DHT22;30858;51.108;8.068;2022-11-14T02:37:38;2.60;99.90
45096;DHT22;30858;51.108;8.068;2022-11-14T02:40:04;2.70;99.90
45096;DHT22;30858;51.108;8.068;2022-11-14T02:42:30;2.60;99.90
45096;DHT22;30858;51.108;8.068;2022-11-14T02:44:55;2.40;99.90
45096;DHT22;30858;51.108;8.068;2022-11-14T02:47:21;2.30;99.90
45096;DHT22;30858;51.108;8.068;2022-11-14T02:49:49;2.20;99.90
45096;DHT22;30858;51.108;8.068;2022-11-14T02:52:15;2.10;99.90
45096;DHT22;30858;51.108;8.068;2022-11-14T02:54:41;2.00;99.90
45096;DHT22;30858;51.108;8.068;2022-11-14T02:57:06;2.00;99.90
45096;DHT22;30858;51.108;8.068;2022-11-14T02:59:32;2.00;99.90
45096;DHT22;30858;51.108;8.068;2022-11-14T03:01:57;1.90;99.90
45096;DHT22;30858;51.108;8.068;2022-11-14T03:04:23;2.20;99.90
45096;DHT22;30858;51.108;8.068;2022-11-14T03:06:48;2.20;99.90
45096;DHT22;30858;51.108;8.068;2022-11-14T03:09:14;2.20;99.90
45096;DHT22;30858;51.108;8.068;2022-11-14T03:11:39;2.20;99.90
45096;DHT22;30858;51.108;8.068;2022-11-14T03:14:05;2.10;99.90
45096;DHT22;30858;51.108;8.068;2022-11-14T03:16:30;2.20;99.90
45096;DHT22;30858;51.108;8.068;2022-11-14T03:18:56;2.20;99.90
45096;DHT22;30858;51.108;8.068;2022-11-14T03:21:22;2.10;99.90
45096;DHT22;30858;51.108;8.068;2022-11-14T03:23:48;2.10;99.90
45096;DHT22;30858;51.108;8.068;2022-11-14T03:26:14;2.30;99.90
45096;DHT22;30858;51.108;8.068;2022-11-14T03:28:41;2.30;99.90
45096;DHT22;30858;51.108;8.068;2022-11-14T03:31:09;2.30;99.90
45096;DHT22;30858;51.108;8.068;2022-11-14T03:33:35;2.50;99.90
45096;DHT22;30858;51.108;8.068;2022-11-14T03:36:02;2.80;99.90
45096;DHT22;30858;51.108;8.068;2022-11-14T03:38:28;2.80;99.90
45096;DHT22;30858;51.108;8.068;2022-11-14T03:40:53;2.70;99.90
45096;DHT22;30858;51.108;8.068;2022-11-14T03:43:20;2.70;99.90
45096;DHT22;30858;51.108;8.068;2022-11-14T03:45:46;2.60;99.90
45096;DHT22;30858;51.108;8.068;2022-11-14T03:48:12;2.60;99.90
45096;DHT22;30858;51.108;8.068;2022-11-14T03:50:39;2.60;99.90
45096;DHT22;30858;51.108;8.068;2022-11-14T03:53:04;2.50;99.90
45096;DHT22;30858;51.108;8.068;2022-11-14T03:55:30;2.40;99.90
45096;DHT22;30858;51.108;8.068;2022-11-14T03:57:55;2.40;99.90
45096;DHT22;30858;51.108;8.068;2022-11-14T04:00:21;2.20;99.90
45096;DHT22;30858;51.108;8.068;2022-11-14T04:02:47;2.20;99.90
45096;DHT22;30858;51.108;8.068;2022-11-14T04:05:12;2.20;99.90
45096;DHT22;30858;51.108;8.068;2022-11-14T04:07:38;2.10;99.90
45096;DHT22;30858;51.108;8.068;2022-11-14T04:10:04;2.10;99.90
45096;DHT22;30858;51.108;8.068;2022-11-14T04:12:30;2.20;99.90
45096;DHT22;30858;51.108;8.068;2022-11-14T04:14:56;2.10;99.90
45096;DHT22;30858;51.108;8.068;2022-11-14T04:17:22;2.10;99.90
45096;DHT22;30858;51.108;8.068;2022-11-14T04:19:47;2.00;99.90
45096;DHT22;30858;51.108;8.068;2022-11-14T04:22:13;2.00;99.90
45096;DHT22;30858;51.108;8.068;2022-11-14T04:24:38;1.90;99.90
45096;DHT22;30858;51.108;8.068;2022-11-14T04:27:04;1.90;99.90
45096;DHT22;30858;51.108;8.068;2022-11-14T04:29:29;1.90;99.90
45096;DHT22;30858;51.108;8.068;2022-11-14T04:31:55;1.90;99.90
45096;DHT22;30858;51.108;8.068;2022-11-14T04:34:20;1.80;99.90
45096;DHT22;30858;51.108;8.068;2022-11-14T04:36:46;1.80;99.90
45096;DHT22;30858;51.108;8.068;2022-11-14T04:39:11;1.80;99.90
45096;DHT22;30858;51.108;8.068;2022-11-14T04:41:37;1.80;99.90
45096;DHT22;30858;51.108;8.068;2022-11-14T04:44:02;1.90;99.90
45096;DHT22;30858;51.108;8.068;2022-11-14T04:46:28;2.00;99.90
45096;DHT22;30858;51.108;8.068;2022-11-14T04:48:53;2.40;99.90
45096;DHT22;30858;51.108;8.068;2022-11-14T04:51:19;2.40;99.90
45096;DHT22;30858;51.108;8.068;2022-11-14T04:53:44;2.40;99.90
45096;DHT22;30858;51.108;8.068;2022-11-14T04:56:10;2.30;99.90
45096;DHT22;30858;51.108;8.068;2022-11-14T04:58:36;2.30;99.90
45096;DHT22;30858;51.108;8.068;2022-11-14T05:01:11;2.20;99.90
45096;DHT22;30858;51.108;8.068;2022-11-14T05:03:37;2.20;99.90
45096;DHT22;30858;51.108;8.068;2022-11-14T05:06:03;2.10;99.90
45096;DHT22;30858;51.108;8.068;2022-11-14T05:08:29;2.00;99.90
45096;DHT22;30858;51.108;8.068;2022-11-14T05:10:54;1.90;99.90
45096;DHT22;30858;51.108;8.068;2022-11-14T05:13:20;1.90;99.90
45096;DHT22;30858;51.108;8.068;2022-11-14T05:15:45;1.80;99.90
45096;DHT22;30858;51.108;8.068;2022-11-14T05:18:11;1.70;99.90
45096;DHT22;30858;51.108;8.068;2022-11-14T05:20:36;1.70;99.90
45096;DHT22;30858;51.108;8.068;2022-11-14T05:23:02;1.60;99.90
45096;DHT22;30858;51.108;8.068;2022-11-14T05:25:28;1.50;99.90
45096;DHT22;30858;51.108;8.068;2022-11-14T05:27:53;1.40;99.90
45096;DHT22;30858;51.108;8.068;2022-11-14T05:30:19;1.30;99.90
45096;DHT22;30858;51.108;8.068;2022-11-14T05:32:44;1.30;99.90
45096;DHT22;30858;51.108;8.068;2022-11-14T05:35:10;1.20;99.90
45096;DHT22;30858;51.108;8.068;2022-11-14T05:37:36;1.20;99.90
45096;DHT22;30858;51.108;8.068;2022-11-14T05:40:03;1.10;99.90
45096;DHT22;30858;51.108;8.068;2022-11-14T05:42:29;1.10;99.90
45096;DHT22;30858;51.108;8.068;2022-11-14T05:44:54;1.00;99.90
45096;DHT22;30858;51.108;8.068;2022-11-14T05:47:20;1.10;99.90
45096;DHT22;30858;51.108;8.068;2022-11-14T05:49:45;1.10;99.90
45096;DHT22;30858;51.108;8.068;2022-11-14T05:52:11;1.10;99.90
45096;DHT22;30858;51.108;8.068;2022-11-14T05:54:37;1.00;99.90
45096;DHT22;30858;51.108;8.068;2022-11-14T05:57:02;1.00;99.90
45096;DHT22;30858;51.108;8.068;2022-11-14T05:59:28;1.00;99.90
45096;DHT22;30858;51.108;8.068;2022-11-14T06:01:54;1.00;99.90
45096;DHT22;30858;51.108;8.068;2022-11-14T06:04:19;1.00;99.90
45096;DHT22;30858;51.108;8.068;2022-11-14T06:06:44;1.00;99.90
45096;DHT22;30858;51.108;8.068;2022-11-14T06:09:10;1.00;99.90
45096;DHT22;30858;51.108;8.068;2022-11-14T06:11:36;1.00;99.90
45096;DHT22;30858;51.108;8.068;2022-11-14T06:14:02;0.90;99.90
45096;DHT22;30858;51.108;8.068;2022-11-14T06:16:28;0.90;99.90
45096;DHT22;30858;51.108;8.068;2022-11-14T06:18:54;0.90;99.90
45096;DHT22;30858;51.108;8.068;2022-11-14T06:21:21;0.90;99.90
45096;DHT22;30858;51.108;8.068;2022-11-14T06:23:48;0.90;99.90
45096;DHT22;30858;51.108;8.068;2022-11-14T06:28:46;0.90;99.90
45096;DHT22;30858;51.108;8.068;2022-11-14T06:31:12;0.80;99.90
45096;DHT22;30858;51.108;8.068;2022-11-14T06:33:37;0.80;99.90
45096;DHT22;30858;51.108;8.068;2022-11-14T06:36:05;0.80;99.90
45096;DHT22;30858;51.108;8.068;2022-11-14T06:38:32;0.90;99.90
45096;DHT22;30858;51.108;8.068;2022-11-14T06:41:12;0.80;99.90
45096;DHT22;30858;51.108;8.068;2022-11-14T06:43:39;0.90;99.90
45096;DHT22;30858;51.108;8.068;2022-11-14T06:46:07;0.80;99.90
45096;DHT22;30858;51.108;8.068;2022-11-14T06:48:34;0.80;99.90
45096;DHT22;30858;51.108;8.068;2022-11-14T06:51:01;0.90;99.90
45096;DHT22;30858;51.108;8.068;2022-11-14T06:53:28;0.90;99.90
45096;DHT22;30858;51.108;8.068;2022-11-14T06:56:15;0.90;99.90
45096;DHT22;30858;51.108;8.068;2022-11-14T06:58:43;0.90;99.90
45096;DHT22;30858;51.108;8.068;2022-11-14T07:01:17;0.90;99.90
45096;DHT22;30858;51.108;8.068;2022-11-14T07:03:43;0.90;99.90
45096;DHT22;30858;51.108;8.068;2022-11-14T07:06:17;1.00;99.90
45096;DHT22;30858;51.108;8.068;2022-11-14T07:08:43;1.00;99.90
45096;DHT22;30858;51.108;8.068;2022-11-14T07:11:13;1.00;99.90
45096;DHT22;30858;51.108;8.068;2022-11-14T07:13:59;1.00;99.90
45096;DHT22;30858;51.108;8.068;2022-11-14T07:16:30;1.10;99.90
45096;DHT22;30858;51.108;8.068;2022-11-14T07:18:57;1.10;99.90
45096;DHT22;30858;51.108;8.068;2022-11-14T07:21:23;1.10;99.90
45096;DHT22;30858;51.108;8.068;2022-11-14T07:23:49;1.10;99.90
45096;DHT22;30858;51.108;8.068;2022-11-14T07:26:15;1.10;99.90
45096;DHT22;30858;51.108;8.068;2022-11-14T07:28:42;1.30;99.90
45096;DHT22;30858;51.108;8.068;2022-11-14T07:31:10;1.40;99.90
45096;DHT22;30858;51.108;8.068;2022-11-14T07:33:37;1.50;99.90
45096;DHT22;30858;51.108;8.068;2022-11-14T07:36:03;1.50;99.90
45096;DHT22;30858;51.108;8.068;2022-11-14T07:38:32;1.60;99.90
45096;DHT22;30858;51.108;8.068;2022-11-14T07:41:00;1.80;99.90
45096;DHT22;30858;51.108;8.068;2022-11-14T07:43:27;2.00;99.90
45096;DHT22;30858;51.108;8.068;2022-11-14T07:45:53;2.10;99.90
45096;DHT22;30858;51.108;8.068;2022-11-14T07:48:18;2.30;99.90
45096;DHT22;30858;51.108;8.068;2022-11-14T07:50:46;2.60;99.90
45096;DHT22;30858;51.108;8.068;2022-11-14T07:53:12;2.80;99.90
45096;DHT22;30858;51.108;8.068;2022-11-14T07:55:38;3.00;99.90
45096;DHT22;30858;51.108;8.068;2022-11-14T07:58:03;3.20;99.90
45096;DHT22;30858;51.108;8.068;2022-11-14T08:00:29;3.30;99.90
45096;DHT22;30858;51.108;8.068;2022-11-14T08:02:55;3.50;99.90
45096;DHT22;30858;51.108;8.068;2022-11-14T08:05:21;3.60;99.90
45096;DHT22;30858;51.108;8.068;2022-11-14T08:07:49;3.90;99.90
45096;DHT22;30858;51.108;8.068;2022-11-14T08:10:16;4.10;99.90
45096;DHT22;30858;51.108;8.068;2022-11-14T08:12:43;4.30;99.90
45096;DHT22;30858;51.108;8.068;2022-11-14T08:15:10;4.50;99.90
45096;DHT22;30858;51.108;8.068;2022-11-14T08:17:36;4.60;99.90
45096;DHT22;30858;51.108;8.068;2022-11-14T08:20:03;4.70;99.90
45096;DHT22;30858;51.108;8.068;2022-11-14T08:22:29;4.70;99.90
45096;DHT22;30858;51.108;8.068;2022-11-14T08:24:55;4.90;99.90
45096;DHT22;30858;51.108;8.068;2022-11-14T08:27:21;5.10;99.90
45096;DHT22;30858;51.108;8.068;2022-11-14T08:29:47;5.20;99.90
45096;DHT22;30858;51.108;8.068;2022-11-14T08:32:13;5.40;99.90
45096;DHT22;30858;51.108;8.068;2022-11-14T08:34:39;5.50;99.90
45096;DHT22;30858;51.108;8.068;2022-11-14T08:37:05;5.60;99.90
45096;DHT22;30858;51.108;8.068;2022-11-14T08:39:30;5.50;99.90
45096;DHT22;30858;51.108;8.068;2022-11-14T08:41:56;5.60;99.90
45096;DHT22;30858;51.108;8.068;2022-11-14T08:44:21;5.60;99.90
45096;DHT22;30858;51.108;8.068;2022-11-14T08:46:49;5.70;99.90
45096;DHT22;30858;51.108;8.068;2022-11-14T08:49:14;5.80;99.90
45096;DHT22;30858;51.108;8.068;2022-11-14T08:51:40;5.80;99.90
45096;DHT22;30858;51.108;8.068;2022-11-14T08:54:06;5.80;99.90
45096;DHT22;30858;51.108;8.068;2022-11-14T08:56:32;5.90;99.90
45096;DHT22;30858;51.108;8.068;2022-11-14T08:58:57;5.90;99.90
45096;DHT22;30858;51.108;8.068;2022-11-14T09:01:23;5.90;99.90
45096;DHT22;30858;51.108;8.068;2022-11-14T09:03:49;5.90;99.90
45096;DHT22;30858;51.108;8.068;2022-11-14T09:06:15;5.90;99.90
45096;DHT22;30858;51.108;8.068;2022-11-14T09:08:40;5.80;99.90
45096;DHT22;30858;51.108;8.068;2022-11-14T09:11:06;5.80;99.90
45096;DHT22;30858;51.108;8.068;2022-11-14T09:13:32;5.80;99.90
45096;DHT22;30858;51.108;8.068;2022-11-14T09:15:58;5.80;99.90
45096;DHT22;30858;51.108;8.068;2022-11-14T09:18:24;5.80;99.90
45096;DHT22;30858;51.108;8.068;2022-11-14T09:20:49;5.80;99.90
45096;DHT22;30858;51.108;8.068;2022-11-14T09:23:15;5.80;99.90
45096;DHT22;30858;51.108;8.068;2022-11-14T09:25:41;5.80;99.90
45096;DHT22;30858;51.108;8.068;2022-11-14T09:28:07;5.80;99.90
45096;DHT22;30858;51.108;8.068;2022-11-14T09:30:34;5.80;99.90
45096;DHT22;30858;51.108;8.068;2022-11-14T09:33:01;5.80;99.90
45096;DHT22;30858;51.108;8.068;2022-11-14T09:35:28;5.90;99.90
45096;DHT22;30858;51.108;8.068;2022-11-14T09:38:05;5.90;99.90
45096;DHT22;30858;51.108;8.068;2022-11-14T09:43:39;5.90;99.90
45096;DHT22;30858;51.108;8.068;2022-11-14T09:46:18;6.00;99.90
45096;DHT22;30858;51.108;8.068;2022-11-14T09:48:44;6.10;99.90
45096;DHT22;30858;51.108;8.068;2022-11-14T09:51:16;6.10;99.90
45096;DHT22;30858;51.108;8.068;2022-11-14T09:53:56;6.10;99.90
45096;DHT22;30858;51.108;8.068;2022-11-14T09:56:25;6.20;99.90
45096;DHT22;30858;51.108;8.068;2022-11-14T09:58:52;6.20;99.90
45096;DHT22;30858;51.108;8.068;2022-11-14T10:01:46;6.20;99.90
45096;DHT22;30858;51.108;8.068;2022-11-14T10:12:20;6.50;99.90
45096;DHT22;30858;51.108;8.068;2022-11-14T10:14:55;6.50;99.90
45096;DHT22;30858;51.108;8.068;2022-11-14T10:17:49;6.60;99.90
45096;DHT22;30858;51.108;8.068;2022-11-14T10:34:19;7.50;99.90
45096;DHT22;30858;51.108;8.068;2022-11-14T10:37:04;7.60;99.90
45096;DHT22;30858;51.108;8.068;2022-11-14T10:39:43;7.60;99.90
45096;DHT22;30858;51.108;8.068;2022-11-14T10:42:18;7.90;99.90
45096;DHT22;30858;51.108;8.068;2022-11-14T10:44:54;8.50;99.90
45096;DHT22;30858;51.108;8.068;2022-11-14T10:47:23;9.00;99.90
45096;DHT22;30858;51.108;8.068;2022-11-14T10:49:53;9.30;99.90
45096;DHT22;30858;51.108;8.068;2022-11-14T10:52:21;9.80;99.90
45096;DHT22;30858;51.108;8.068;2022-11-14T10:54:56;10.40;99.90
45096;DHT22;30858;51.108;8.068;2022-11-14T10:57:24;10.70;99.90
45096;DHT22;30858;51.108;8.068;2022-11-14T10:59:52;10.60;99.90
45096;DHT22;30858;51.108;8.068;2022-11-14T11:02:19;10.60;99.90
45096;DHT22;30858;51.108;8.068;2022-11-14T11:04:45;10.80;99.90
45096;DHT22;30858;51.108;8.068;2022-11-14T11:10:00;11.80;99.90
45096;DHT22;30858;51.108;8.068;2022-11-14T11:12:47;11.60;99.90
45096;DHT22;30858;51.108;8.068;2022-11-14T11:15:24;11.70;99.90
45096;DHT22;30858;51.108;8.068;2022-11-14T11:20:40;11.40;99.90
45096;DHT22;30858;51.108;8.068;2022-11-14T11:23:17;11.80;99.90
45096;DHT22;30858;51.108;8.068;2022-11-14T11:25:43;12.10;99.90
45096;DHT22;30858;51.108;8.068;2022-11-14T11:28:17;12.00;99.90
45096;DHT22;30858;51.108;8.068;2022-11-14T11:31:15;12.10;99.90
45096;DHT22;30858;51.108;8.068;2022-11-14T11:33:41;12.30;99.90
45096;DHT22;30858;51.108;8.068;2022-11-14T11:36:22;12.10;99.90
45096;DHT22;30858;51.108;8.068;2022-11-14T11:38:48;11.90;99.90
45096;DHT22;30858;51.108;8.068;2022-11-14T11:41:26;11.90;99.90
45096;DHT22;30858;51.108;8.068;2022-11-14T11:44:02;12.40;99.90
45096;DHT22;30858;51.108;8.068;2022-11-14T11:46:31;12.00;99.90
45096;DHT22;30858;51.108;8.068;2022-11-14T11:49:05;10.90;99.90
45096;DHT22;30858;51.108;8.068;2022-11-14T11:51:39;10.10;99.90
45096;DHT22;30858;51.108;8.068;2022-11-14T11:54:28;9.90;99.90
45096;DHT22;30858;51.108;8.068;2022-11-14T11:56:58;9.30;99.90
45096;DHT22;30858;51.108;8.068;2022-11-14T11:59:30;8.80;99.90
45096;DHT22;30858;51.108;8.068;2022-11-14T12:02:00;9.10;99.90
45096;DHT22;30858;51.108;8.068;2022-11-14T12:04:27;9.50;99.90
45096;DHT22;30858;51.108;8.068;2022-11-14T12:07:02;9.40;99.90
45096;DHT22;30858;51.108;8.068;2022-11-14T12:09:40;9.50;99.90
45096;DHT22;30858;51.108;8.068;2022-11-14T12:23:22;8.60;99.90
45096;DHT22;30858;51.108;8.068;2022-11-14T12:31:33;8.70;99.90
45096;DHT22;30858;51.108;8.068;2022-11-14T12:34:11;8.30;99.90
45096;DHT22;30858;51.108;8.068;2022-11-14T12:36:39;8.20;99.90
45096;DHT22;30858;51.108;8.068;2022-11-14T12:39:23;8.30;99.90
45096;DHT22;30858;51.108;8.068;2022-11-14T12:41:49;8.20;99.90
45096;DHT22;30858;51.108;8.068;2022-11-14T12:44:32;7.90;99.90
45096;DHT22;30858;51.108;8.068;2022-11-14T12:52:53;7.70;99.90
45096;DHT22;30858;51.108;8.068;2022-11-14T13:06:16;7.60;99.90
45096;DHT22;30858;51.108;8.068;2022-11-14T13:11:34;7.50;99.90
45096;DHT22;30858;51.108;8.068;2022-11-14T13:14:19;7.50;99.90
45096;DHT22;30858;51.108;8.068;2022-11-14T13:17:22;7.50;99.90
45096;DHT22;30858;51.108;8.068;2022-11-14T13:20:34;7.40;99.90
45096;DHT22;30858;51.108;8.068;2022-11-14T13:36:39;7.60;99.90
45096;DHT22;30858;51.108;8.068;2022-11-14T13:50:08;7.90;99.90
45096;DHT22;30858;51.108;8.068;2022-11-14T13:52:43;8.00;99.90
45096;DHT22;30858;51.108;8.068;2022-11-14T13:58:29;8.00;99.90
45096;DHT22;30858;51.108;8.068;2022-11-14T14:03:47;8.10;99.90
45096;DHT22;30858;51.108;8.068;2022-11-14T14:09:04;8.00;99.90
45096;DHT22;30858;51.108;8.068;2022-11-14T14:11:51;8.00;99.90
45096;DHT22;30858;51.108;8.068;2022-11-14T14:17:38;8.10;99.90
45096;DHT22;30858;51.108;8.068;2022-11-14T14:22:58;8.10;99.90
45096;DHT22;30858;51.108;8.068;2022-11-14T14:25:35;8.10;99.90
45096;DHT22;30858;51.108;8.068;2022-11-14T14:28:09;8.00;99.90
45096;DHT22;30858;51.108;8.068;2022-11-14T14:30:36;8.10;99.90
45096;DHT22;30858;51.108;8.068;2022-11-14T14:33:14;8.10;99.90
45096;DHT22;30858;51.108;8.068;2022-11-14T14:35:51;8.20;99.90
45096;DHT22;30858;51.108;8.068;2022-11-14T14:38:25;8.20;99.90
45096;DHT22;30858;51.108;8.068;2022-11-14T14:40:55;8.20;99.90
45096;DHT22;30858;51.108;8.068;2022-11-14T14:43:32;8.20;99.90
45096;DHT22;30858;51.108;8.068;2022-11-14T14:45:58;8.10;99.90
45096;DHT22;30858;51.108;8.068;2022-11-14T14:48:27;8.10;99.90
45096;DHT22;30858;51.108;8.068;2022-11-14T14:50:56;8.10;99.90
45096;DHT22;30858;51.108;8.068;2022-11-14T14:56:00;8.20;99.90
45096;DHT22;30858;51.108;8.068;2022-11-14T14:58:29;8.20;99.90
45096;DHT22;30858;51.108;8.068;2022-11-14T15:01:04;8.20;99.90
45096;DHT22;30858;51.108;8.068;2022-11-14T15:03:34;8.30;99.90
45096;DHT22;30858;51.108;8.068;2022-11-14T15:06:02;8.30;99.90
45096;DHT22;30858;51.108;8.068;2022-11-14T15:08:33;8.30;99.90
45096;DHT22;30858;51.108;8.068;2022-11-14T15:11:01;8.30;99.90
45096;DHT22;30858;51.108;8.068;2022-11-14T15:13:29;8.30;99.90
45096;DHT22;30858;51.108;8.068;2022-11-14T15:15:56;8.30;99.90
45096;DHT22;30858;51.108;8.068;2022-11-14T15:18:30;8.40;99.90
45096;DHT22;30858;51.108;8.068;2022-11-14T15:21:26;8.30;99.90
45096;DHT22;30858;51.108;8.068;2022-11-14T15:24:12;8.40;99.90
45096;DHT22;30858;51.108;8.068;2022-11-14T15:26:39;8.40;99.90
45096;DHT22;30858;51.108;8.068;2022-11-14T15:29:27;8.40;99.90
45096;DHT22;30858;51.108;8.068;2022-11-14T15:31:58;8.40;99.90
45096;DHT22;30858;51.108;8.068;2022-11-14T15:37:06;8.40;99.90
45096;DHT22;30858;51.108;8.068;2022-11-14T15:39:32;8.40;99.90
45096;DHT22;30858;51.108;8.068;2022-11-14T15:44:42;8.40;99.90
45096;DHT22;30858;51.108;8.068;2022-11-14T15:47:16;8.40;99.90
45096;DHT22;30858;51.108;8.068;2022-11-14T15:50:02;8.50;99.90
45096;DHT22;30858;51.108;8.068;2022-11-14T15:54:56;8.50;99.90
45096;DHT22;30858;51.108;8.068;2022-11-14T15:57:22;8.50;99.90
45096;DHT22;30858;51.108;8.068;2022-11-14T15:59:47;8.40;99.90
45096;DHT22;30858;51.108;8.068;2022-11-14T16:02:22;8.50;99.90
45096;DHT22;30858;51.108;8.068;2022-11-14T16:04:51;8.40;99.90
45096;DHT22;30858;51.108;8.068;2022-11-14T16:07:17;8.40;99.90
45096;DHT22;30858;51.108;8.068;2022-11-14T16:09:43;8.50;99.90
45096;DHT22;30858;51.108;8.068;2022-11-14T16:12:09;8.50;99.90
45096;DHT22;30858;51.108;8.068;2022-11-14T16:14:34;8.50;99.90
45096;DHT22;30858;51.108;8.068;2022-11-14T16:17:00;8.50;99.90
45096;DHT22;30858;51.108;8.068;2022-11-14T16:19:26;8.50;99.90
45096;DHT22;30858;51.108;8.068;2022-11-14T16:21:51;8.50;99.90
45096;DHT22;30858;51.108;8.068;2022-11-14T16:24:20;8.50;99.90
45096;DHT22;30858;51.108;8.068;2022-11-14T16:26:46;8.50;99.90
45096;DHT22;30858;51.108;8.068;2022-11-14T16:29:12;8.60;99.90
45096;DHT22;30858;51.108;8.068;2022-11-14T16:31:38;8.60;99.90
45096;DHT22;30858;51.108;8.068;2022-11-14T16:34:04;8.60;99.90
45096;DHT22;30858;51.108;8.068;2022-11-14T16:36:30;8.70;99.90
45096;DHT22;30858;51.108;8.068;2022-11-14T16:39:00;8.70;99.90
45096;DHT22;30858;51.108;8.068;2022-11-14T16:41:27;8.70;99.90
45096;DHT22;30858;51.108;8.068;2022-11-14T16:43:54;8.70;99.90
45096;DHT22;30858;51.108;8.068;2022-11-14T16:46:20;8.70;99.90
45096;DHT22;30858;51.108;8.068;2022-11-14T16:48:46;8.70;99.90
45096;DHT22;30858;51.108;8.068;2022-11-14T16:51:11;8.70;99.90
45096;DHT22;30858;51.108;8.068;2022-11-14T16:53:37;8.80;99.90
45096;DHT22;30858;51.108;8.068;2022-11-14T16:56:03;8.80;99.90
45096;DHT22;30858;51.108;8.068;2022-11-14T16:58:28;8.90;99.90
45096;DHT22;30858;51.108;8.068;2022-11-14T17:00:54;8.80;99.90
45096;DHT22;30858;51.108;8.068;2022-11-14T17:03:20;8.80;99.90
45096;DHT22;30858;51.108;8.068;2022-11-14T17:05:48;8.80;99.90
45096;DHT22;30858;51.108;8.068;2022-11-14T17:08:14;8.80;99.90
45096;DHT22;30858;51.108;8.068;2022-11-14T17:10:41;8.80;99.90
45096;DHT22;30858;51.108;8.068;2022-11-14T17:13:07;8.90;99.90
45096;DHT22;30858;51.108;8.068;2022-11-14T17:15:33;8.90;99.90
45096;DHT22;30858;51.108;8.068;2022-11-14T17:17:58;8.90;99.90
45096;DHT22;30858;51.108;8.068;2022-11-14T17:20:24;8.90;99.90
45096;DHT22;30858;51.108;8.068;2022-11-14T17:22:49;9.00;99.90
45096;DHT22;30858;51.108;8.068;2022-11-14T17:25:15;9.00;99.90
45096;DHT22;30858;51.108;8.068;2022-11-14T17:27:40;9.00;99.90
45096;DHT22;30858;51.108;8.068;2022-11-14T17:30:10;9.00;99.90
45096;DHT22;30858;51.108;8.068;2022-11-14T17:32:36;9.10;99.90
45096;DHT22;30858;51.108;8.068;2022-11-14T17:35:02;9.20;99.90
45096;DHT22;30858;51.108;8.068;2022-11-14T17:37:27;9.20;99.90
45096;DHT22;30858;51.108;8.068;2022-11-14T17:39:53;9.20;99.90
45096;DHT22;30858;51.108;8.068;2022-11-14T17:42:18;9.30;99.90
45096;DHT22;30858;51.108;8.068;2022-11-14T17:44:44;9.30;99.90
45096;DHT22;30858;51.108;8.068;2022-11-14T17:47:09;9.30;99.90
45096;DHT22;30858;51.108;8.068;2022-11-14T17:49:35;9.30;99.90
45096;DHT22;30858;51.108;8.068;2022-11-14T17:52:00;9.40;99.90
45096;DHT22;30858;51.108;8.068;2022-11-14T17:54:26;9.40;99.90
45096;DHT22;30858;51.108;8.068;2022-11-14T17:56:51;9.40;99.90